createdAt,value
2018-12-20T00:00:15.494Z,101009.34
2018-12-20T00:02:44.525Z,101005.84
2018-12-20T00:05:13.772Z,101007.59
2018-12-20T00:07:42.884Z,101008.45
2018-12-20T00:10:12.078Z,101010.61
2018-12-20T00:12:41.203Z,101006.69
2018-12-20T00:15:10.429Z,101003.64
2018-12-20T00:17:44.970Z,101005.83
2018-12-20T00:20:14.202Z,100998.39
2018-12-20T00:22:43.462Z,100996.67
2018-12-20T00:25:12.988Z,100990.98
2018-12-20T00:27:41.975Z,100994.05
2018-12-20T00:30:11.146Z,100991.44
2018-12-20T00:32:40.282Z,100991.44
2018-12-20T00:35:09.868Z,100990.14
2018-12-20T00:37:39.029Z,100984.91
2018-12-20T00:40:08.124Z,100984.02
2018-12-20T00:42:37.113Z,100987.53
2018-12-20T00:45:07.341Z,100990.58
2018-12-20T00:47:36.369Z,100999.73
2018-12-20T00:50:06.604Z,100989.27
2018-12-20T00:52:35.672Z,100992.81
2018-12-20T00:55:05.138Z,100989.31
2018-12-20T00:57:34.238Z,100988.42
2018-12-20T01:00:04.636Z,100987.14
2018-12-20T01:02:33.666Z,100993.68
2018-12-20T01:05:03.656Z,100990.63
2018-12-20T01:07:32.896Z,100988.86
2018-12-20T01:10:02.147Z,100996.70
2018-12-20T01:12:31.216Z,100997.11
2018-12-20T01:15:00.179Z,100999.30
2018-12-20T01:17:33.435Z,100995.39
2018-12-20T01:20:02.477Z,101001.03
2018-12-20T01:22:31.680Z,101002.80
2018-12-20T01:25:02.184Z,101007.58
2018-12-20T01:27:31.372Z,101005.02
2018-12-20T01:30:00.439Z,101005.89
2018-12-20T01:32:29.560Z,101008.05
2018-12-20T01:34:58.596Z,101011.55
2018-12-20T01:37:27.844Z,101009.36
2018-12-20T01:39:56.934Z,101009.77
2018-12-20T01:42:26.184Z,101009.34
2018-12-20T01:44:55.237Z,101014.56
2018-12-20T01:47:24.420Z,101018.95
2018-12-20T01:49:53.660Z,101019.34
2018-12-20T01:52:22.788Z,101023.25
2018-12-20T01:54:52.010Z,101012.81
2018-12-20T01:57:22.367Z,101014.55
2018-12-20T01:59:51.427Z,101011.05
2018-12-20T02:02:20.605Z,101008.87
2018-12-20T02:04:49.764Z,101015.41
2018-12-20T02:07:18.891Z,101011.51
2018-12-20T02:09:47.922Z,101013.27
2018-12-20T02:12:17.223Z,101006.25
2018-12-20T02:14:46.418Z,101009.73
2018-12-20T02:17:15.609Z,101012.77
2018-12-20T02:19:44.736Z,101007.09
2018-12-20T02:22:13.897Z,101008.38
2018-12-20T02:24:43.009Z,101015.30
2018-12-20T02:27:12.272Z,101020.11
2018-12-20T02:29:41.695Z,101018.77
2018-12-20T02:32:12.582Z,101015.28
2018-12-20T02:34:43.192Z,101019.63
2018-12-20T02:37:12.251Z,101012.23
2018-12-20T02:39:41.253Z,101007.44
2018-12-20T02:42:10.391Z,101006.56
2018-12-20T02:44:39.577Z,101003.52
2018-12-20T02:47:09.961Z,101000.47
2018-12-20T02:49:38.988Z,101000.47
2018-12-20T02:52:08.083Z,100996.09
2018-12-20T02:54:37.304Z,100989.13
2018-12-20T02:57:06.415Z,100986.92
2018-12-20T02:59:35.413Z,100988.20
2018-12-20T03:02:04.545Z,100984.27
2018-12-20T03:04:33.682Z,100988.61
2018-12-20T03:07:02.833Z,100984.72
2018-12-20T03:09:32.253Z,100985.98
2018-12-20T03:12:01.374Z,100986.83
2018-12-20T03:14:30.540Z,100983.74
2018-12-20T03:16:59.844Z,100981.97
2018-12-20T03:19:28.997Z,100980.17
2018-12-20T03:21:58.112Z,100980.19
2018-12-20T03:24:27.226Z,100973.16
2018-12-20T03:26:56.525Z,100967.06
2018-12-20T03:29:26.369Z,100970.08
2018-12-20T03:31:55.770Z,100967.47
2018-12-20T03:34:24.867Z,100965.70
2018-12-20T03:36:53.858Z,100970.94
2018-12-20T03:39:23.221Z,100958.72
2018-12-20T03:41:52.280Z,100962.72
2018-12-20T03:44:21.397Z,100964.03
2018-12-20T03:46:50.467Z,100967.94
2018-12-20T03:49:19.665Z,100975.30
2018-12-20T03:51:48.860Z,100975.28
2018-12-20T03:54:18.094Z,100971.34
2018-12-20T03:56:47.427Z,100970.03
2018-12-20T03:59:16.635Z,100961.33
2018-12-20T04:01:45.650Z,100967.87
2018-12-20T04:04:14.675Z,100972.70
2018-12-20T04:06:43.759Z,100978.83
2018-12-20T04:09:12.725Z,100982.31
2018-12-20T04:11:41.724Z,100985.38
2018-12-20T04:14:10.759Z,100984.11
2018-12-20T04:16:40.148Z,100979.76
2018-12-20T04:19:09.212Z,100981.06
2018-12-20T04:21:38.440Z,100981.48
2018-12-20T04:24:07.780Z,100986.31
2018-12-20T04:26:37.176Z,100984.15
2018-12-20T04:29:07.392Z,100985.91
2018-12-20T04:31:36.440Z,100980.25
2018-12-20T04:34:05.500Z,100980.67
2018-12-20T04:36:34.584Z,100976.33
2018-12-20T04:39:05.477Z,100971.98
2018-12-20T04:41:34.641Z,100969.36
2018-12-20T04:44:04.014Z,100963.27
2018-12-20T04:46:33.200Z,100967.55
2018-12-20T04:49:02.568Z,100968.42
2018-12-20T04:51:31.913Z,100974.09
2018-12-20T04:54:01.784Z,100966.73
2018-12-20T04:56:30.915Z,100969.80
2018-12-20T04:59:00.167Z,100965.42
2018-12-20T05:01:29.338Z,100969.80
2018-12-20T05:03:58.917Z,100964.14
2018-12-20T05:06:28.138Z,100958.00
2018-12-20T05:08:57.571Z,100965.38
2018-12-20T05:11:26.884Z,100965.81
2018-12-20T05:13:56.091Z,100959.25
2018-12-20T05:16:25.375Z,100956.61
2018-12-20T05:18:54.519Z,100957.06
2018-12-20T05:21:23.729Z,100958.31
2018-12-20T05:23:52.868Z,100967.92
2018-12-20T05:26:22.181Z,100973.22
2018-12-20T05:28:51.355Z,100975.41
2018-12-20T05:31:20.465Z,100964.09
2018-12-20T05:33:49.864Z,100963.69
2018-12-20T05:36:19.138Z,100961.50
2018-12-20T05:38:48.181Z,100963.66
2018-12-20T05:41:17.165Z,100966.30
2018-12-20T05:43:46.335Z,100953.66
2018-12-20T05:46:15.398Z,100953.61
2018-12-20T05:48:44.576Z,100966.23
2018-12-20T05:51:13.684Z,100961.41
2018-12-20T05:53:42.771Z,100958.36
2018-12-20T05:56:11.795Z,100963.19
2018-12-20T05:58:41.006Z,100960.98
2018-12-20T06:01:10.215Z,100957.89
2018-12-20T06:03:39.311Z,100965.28
2018-12-20T06:06:08.585Z,100957.03
2018-12-20T06:08:37.717Z,100956.63
2018-12-20T06:11:06.714Z,100962.31
2018-12-20T06:13:36.147Z,100959.27
2018-12-20T06:16:12.450Z,100964.95
2018-12-20T06:18:36.651Z,100959.27
2018-12-20T06:21:06.034Z,100957.54
2018-12-20T06:23:35.257Z,100957.11
2018-12-20T06:26:04.311Z,100958.84
2018-12-20T06:28:34.828Z,100960.57
2018-12-20T06:31:03.800Z,100963.64
2018-12-20T06:33:32.801Z,100965.82
2018-12-20T06:36:01.813Z,100961.47
2018-12-20T06:38:30.869Z,100968.46
2018-12-20T06:40:59.851Z,100961.05
2018-12-20T06:43:28.825Z,100969.80
2018-12-20T06:45:57.935Z,100969.80
2018-12-20T06:48:26.956Z,100968.48
2018-12-20T06:50:56.073Z,100968.50
2018-12-20T06:53:25.055Z,100966.34
2018-12-20T06:55:54.060Z,100958.92
2018-12-20T06:58:23.768Z,100965.94
2018-12-20T07:00:52.786Z,100965.94
2018-12-20T07:03:21.835Z,100963.32
2018-12-20T07:05:50.921Z,100963.32
2018-12-20T07:08:19.928Z,100962.02
2018-12-20T07:10:49.111Z,100963.77
2018-12-20T07:13:18.151Z,100961.19
2018-12-20T07:15:47.169Z,100969.47
2018-12-20T07:18:16.290Z,100965.11
2018-12-20T07:20:45.472Z,100975.58
2018-12-20T07:23:14.535Z,100966.88
2018-12-20T07:25:43.652Z,100966.91
2018-12-20T07:28:12.753Z,100970.38
2018-12-20T07:30:41.850Z,100965.59
2018-12-20T07:33:10.836Z,100976.05
2018-12-20T07:35:39.902Z,100977.79
2018-12-20T07:38:09.060Z,100972.11
2018-12-20T07:40:38.310Z,100971.66
2018-12-20T07:43:07.399Z,100972.07
2018-12-20T07:45:36.612Z,100973.76
2018-12-20T07:48:05.620Z,100978.95
2018-12-20T07:50:35.198Z,100970.20
2018-12-20T07:53:04.353Z,100973.20
2018-12-20T07:55:33.406Z,100967.19
2018-12-20T07:58:02.391Z,100962.02
2018-12-20T08:00:34.789Z,100965.44
2018-12-20T08:03:03.907Z,100965.41
2018-12-20T08:05:33.032Z,100965.25
2018-12-20T08:08:02.138Z,100966.97
2018-12-20T08:10:31.215Z,100965.23
2018-12-20T08:13:00.235Z,100970.11
2018-12-20T08:15:29.316Z,100973.58
2018-12-20T08:17:58.314Z,100968.38
2018-12-20T08:20:27.373Z,100975.38
2018-12-20T08:22:56.488Z,100981.51
2018-12-20T08:25:25.531Z,100983.72
2018-12-20T08:27:54.555Z,100992.87
2018-12-20T08:30:23.546Z,100985.09
2018-12-20T08:32:52.575Z,100991.27
2018-12-20T08:35:21.764Z,100984.34
2018-12-20T08:37:50.860Z,100985.74
2018-12-20T08:40:19.869Z,100990.13
2018-12-20T08:42:48.933Z,100984.08
2018-12-20T08:45:17.949Z,100987.63
2018-12-20T08:47:47.026Z,100988.07
2018-12-20T08:50:16.065Z,100992.52
2018-12-20T08:52:45.282Z,100990.33
2018-12-20T08:55:14.287Z,100994.28
2018-12-20T08:57:43.262Z,100997.77
2018-12-20T09:00:12.486Z,100995.63
2018-12-20T09:02:41.538Z,100984.36
2018-12-20T09:05:10.560Z,100997.41
2018-12-20T09:07:39.566Z,100987.86
2018-12-20T09:10:08.771Z,100989.61
2018-12-20T09:12:37.775Z,100995.31
2018-12-20T09:15:06.948Z,100995.36
2018-12-20T09:17:35.958Z,100993.13
2018-12-20T09:20:05.781Z,100994.02
2018-12-20T09:22:34.759Z,100998.41
2018-12-20T09:25:03.869Z,100994.88
2018-12-20T09:27:32.872Z,100994.05
2018-12-20T09:30:02.138Z,100994.47
2018-12-20T09:32:31.249Z,100988.86
2018-12-20T09:35:00.427Z,100990.59
2018-12-20T09:37:29.514Z,100993.20
2018-12-20T09:39:59.678Z,100998.02
2018-12-20T09:42:28.930Z,100994.98
2018-12-20T09:44:58.939Z,100999.37
2018-12-20T09:47:33.431Z,100995.42
2018-12-20T09:50:02.503Z,100994.17
2018-12-20T09:52:31.502Z,100992.87
2018-12-20T09:55:00.663Z,100990.73
2018-12-20T09:57:29.711Z,100992.87
2018-12-20T09:59:58.711Z,100986.32
2018-12-20T10:02:27.892Z,100991.98
2018-12-20T10:04:56.905Z,100987.20
2018-12-20T10:07:26.062Z,100985.03
2018-12-20T10:09:55.184Z,100988.11
2018-12-20T10:12:24.250Z,100975.87
2018-12-20T10:14:53.336Z,100977.65
2018-12-20T10:17:22.476Z,100975.47
2018-12-20T10:19:51.484Z,100974.15
2018-12-20T10:22:20.531Z,100966.31
2018-12-20T10:24:49.559Z,100969.37
2018-12-20T10:27:18.611Z,100967.19
2018-12-20T10:29:47.625Z,100965.45
2018-12-20T10:32:16.601Z,100970.27
2018-12-20T10:34:45.610Z,100963.30
2018-12-20T10:37:14.853Z,100961.53
2018-12-20T10:39:43.842Z,100960.20
2018-12-20T10:42:12.840Z,100958.03
2018-12-20T10:44:41.863Z,100956.72
2018-12-20T10:47:16.285Z,100951.92
2018-12-20T10:49:45.931Z,100952.80
2018-12-20T10:52:15.050Z,100947.55
2018-12-20T10:54:44.089Z,100945.37
2018-12-20T10:57:13.150Z,100944.51
2018-12-20T10:59:42.123Z,100939.25
2018-12-20T11:03:15.247Z,100935.78
2018-12-20T11:05:49.612Z,100930.97
2018-12-20T11:08:23.049Z,100928.34
2018-12-20T11:10:56.262Z,100921.81
2018-12-20T11:13:25.541Z,100924.86
2018-12-20T11:15:54.605Z,100918.30
2018-12-20T11:18:23.732Z,100922.25
2018-12-20T11:20:53.065Z,100919.63
2018-12-20T11:23:22.075Z,100917.88
2018-12-20T11:25:51.097Z,100914.83
2018-12-20T11:28:21.879Z,100916.99
2018-12-20T11:30:50.946Z,100910.88
2018-12-20T11:33:19.929Z,100911.33
2018-12-20T11:35:49.091Z,100905.63
2018-12-20T11:38:18.207Z,100902.52
2018-12-20T11:40:47.198Z,100902.09
2018-12-20T11:43:16.169Z,100903.89
2018-12-20T11:45:45.191Z,100905.64
2018-12-20T11:48:14.221Z,100899.92
2018-12-20T11:50:43.231Z,100901.67
2018-12-20T11:53:13.772Z,100899.42
2018-12-20T11:55:42.745Z,100897.56
2018-12-20T11:58:11.800Z,100890.66
2018-12-20T12:00:40.920Z,100886.66
2018-12-20T12:03:09.892Z,100886.60
2018-12-20T12:05:38.975Z,100890.20
2018-12-20T12:08:08.309Z,100887.62
2018-12-20T12:10:37.404Z,100890.72
2018-12-20T12:13:06.533Z,100881.58
2018-12-20T12:15:35.758Z,100886.81
2018-12-20T12:18:04.971Z,100887.27
2018-12-20T12:20:34.898Z,100884.62
2018-12-20T12:23:04.340Z,100881.55
2018-12-20T12:25:33.396Z,100878.00
2018-12-20T12:28:02.485Z,100881.48
2018-12-20T12:30:31.639Z,100876.25
2018-12-20T12:33:00.647Z,100878.90
2018-12-20T12:35:30.506Z,100870.59
2018-12-20T12:37:59.505Z,100871.89
2018-12-20T12:40:28.769Z,100877.12
2018-12-20T12:42:58.992Z,100872.75
2018-12-20T12:45:28.180Z,100868.86
2018-12-20T12:48:03.630Z,100867.97
2018-12-20T12:50:31.590Z,100868.84
2018-12-20T12:53:00.591Z,100871.49
2018-12-20T12:55:30.681Z,100871.50
2018-12-20T12:58:04.649Z,100870.63
2018-12-20T13:00:30.752Z,100871.06
2018-12-20T13:02:59.906Z,100867.11
2018-12-20T13:05:28.910Z,100867.98
2018-12-20T13:07:58.996Z,100870.61
2018-12-20T13:10:28.023Z,100869.75
2018-12-20T13:12:57.027Z,100871.48
2018-12-20T13:15:26.123Z,100866.27
2018-12-20T13:17:55.240Z,100868.44
2018-12-20T13:20:24.353Z,100872.84
2018-12-20T13:22:53.328Z,100872.81
2018-12-20T13:25:22.571Z,100871.06
2018-12-20T13:27:51.622Z,100867.56
2018-12-20T13:30:20.608Z,100869.31
2018-12-20T13:32:49.600Z,100869.77
2018-12-20T13:35:18.630Z,100867.13
2018-12-20T13:37:47.695Z,100865.81
2018-12-20T13:40:16.940Z,100867.56
2018-12-20T13:42:46.017Z,100860.16
2018-12-20T13:45:21.748Z,100866.71
2018-12-20T13:47:50.994Z,100865.41
2018-12-20T13:50:20.062Z,100864.97
2018-12-20T13:52:49.071Z,100861.91
2018-12-20T13:55:18.068Z,100862.78
2018-12-20T13:57:47.171Z,100866.27
2018-12-20T14:00:16.320Z,100865.39
2018-12-20T14:02:48.437Z,100866.72
2018-12-20T14:05:17.515Z,100867.16
2018-12-20T14:07:46.524Z,100864.13
2018-12-20T14:10:15.542Z,100870.69
2018-12-20T14:12:44.613Z,100868.92
2018-12-20T14:15:13.679Z,100869.77
2018-12-20T14:17:43.166Z,100868.89
2018-12-20T14:20:12.409Z,100866.27
2018-12-20T14:22:41.454Z,100875.47
2018-12-20T14:25:10.603Z,100875.45
2018-12-20T14:27:39.609Z,100873.26
2018-12-20T14:30:10.120Z,100880.70
2018-12-20T14:32:39.277Z,100880.25
2018-12-20T14:35:08.471Z,100878.08
2018-12-20T14:37:37.636Z,100882.46
2018-12-20T14:40:08.943Z,100881.58
2018-12-20T14:42:38.072Z,100882.46
2018-12-20T14:45:07.420Z,100876.78
2018-12-20T14:47:36.486Z,100879.81
2018-12-20T14:50:07.103Z,100880.25
2018-12-20T14:52:36.098Z,100882.01
2018-12-20T14:55:06.579Z,100876.78
2018-12-20T14:57:35.718Z,100885.50
2018-12-20T15:00:07.257Z,100878.53
2018-12-20T15:02:36.390Z,100876.77
2018-12-20T15:05:05.998Z,100887.27
2018-12-20T15:07:35.030Z,100886.81
2018-12-20T15:10:06.004Z,100889.03
2018-12-20T15:12:35.094Z,100883.34
2018-12-20T15:15:04.682Z,100892.95
2018-12-20T15:17:33.819Z,100895.13
2018-12-20T15:20:02.849Z,100889.45
2018-12-20T15:22:31.931Z,100891.63
2018-12-20T15:25:01.007Z,100895.13
2018-12-20T15:27:30.077Z,100900.83
2018-12-20T15:29:59.143Z,100899.95
2018-12-20T15:32:28.332Z,100900.39
2018-12-20T15:34:57.338Z,100903.00
2018-12-20T15:37:26.468Z,100897.75
2018-12-20T15:39:55.677Z,100901.23
2018-12-20T15:42:24.701Z,100900.39
2018-12-20T15:44:53.815Z,100889.45
2018-12-20T15:47:22.957Z,100896.00
2018-12-20T15:49:51.983Z,100893.39
2018-12-20T15:52:21.120Z,100891.20
2018-12-20T15:54:50.482Z,100890.34
2018-12-20T15:57:19.513Z,100891.20
2018-12-20T15:59:48.540Z,100885.95
2018-12-20T16:02:17.737Z,100886.84
2018-12-20T16:04:46.760Z,100892.08
2018-12-20T16:07:15.807Z,100887.27
2018-12-20T16:09:45.036Z,100892.06
2018-12-20T16:12:14.090Z,100889.00
2018-12-20T16:14:43.216Z,100881.58
2018-12-20T16:17:12.233Z,100881.58
2018-12-20T16:19:41.405Z,100884.64
2018-12-20T16:22:10.476Z,100890.34
2018-12-20T16:24:39.606Z,100898.63
2018-12-20T16:27:08.694Z,100893.38
2018-12-20T16:29:39.885Z,100894.27
2018-12-20T16:32:09.228Z,100897.77
2018-12-20T16:34:38.448Z,100889.01
2018-12-20T16:37:07.567Z,100892.52
2018-12-20T16:39:39.163Z,100891.63
2018-12-20T16:42:13.738Z,100894.69
2018-12-20T16:44:43.655Z,100895.13
2018-12-20T16:47:13.511Z,100892.05
2018-12-20T16:49:42.539Z,100890.76
2018-12-20T16:52:14.128Z,100891.63
2018-12-20T16:54:43.134Z,100890.31
2018-12-20T16:57:14.632Z,100893.38
2018-12-20T16:59:44.443Z,100891.20
2018-12-20T17:02:17.223Z,100887.27
2018-12-20T17:04:46.351Z,100891.22
2018-12-20T17:07:15.457Z,100888.16
2018-12-20T17:09:44.520Z,100892.96
2018-12-20T17:12:13.831Z,100889.45
2018-12-20T17:14:52.434Z,100884.66
2018-12-20T17:17:26.966Z,100887.69
2018-12-20T17:19:56.000Z,100883.33
2018-12-20T17:22:25.325Z,100888.13
2018-12-20T17:24:54.407Z,100888.57
2018-12-20T17:27:24.316Z,100882.45
2018-12-20T17:29:53.432Z,100885.95
2018-12-20T17:32:22.535Z,100881.16
2018-12-20T17:34:51.763Z,100881.16
2018-12-20T17:37:20.784Z,100882.47
2018-12-20T17:39:51.192Z,100889.46
2018-12-20T17:42:20.208Z,100879.41
2018-12-20T17:44:50.259Z,100878.95
2018-12-20T17:47:19.383Z,100879.38
2018-12-20T17:49:49.401Z,100878.52
2018-12-20T17:52:18.478Z,100875.03
2018-12-20T17:54:48.951Z,100874.59
2018-12-20T17:57:24.587Z,100878.95
2018-12-20T17:59:57.163Z,100876.77
2018-12-20T18:02:34.406Z,100879.38
2018-12-20T18:05:07.120Z,100868.88
2018-12-20T18:07:34.595Z,100875.88
2018-12-20T18:10:04.209Z,100871.97
2018-12-20T18:12:33.219Z,100868.45
2018-12-20T18:15:02.295Z,100865.38
2018-12-20T18:17:31.330Z,100875.42
2018-12-20T18:20:00.914Z,100874.08
2018-12-20T18:22:29.921Z,100868.80
2018-12-20T18:24:58.938Z,100874.03
2018-12-20T18:27:28.032Z,100875.79
2018-12-20T18:29:57.117Z,100875.30
2018-12-20T18:32:26.137Z,100877.50
2018-12-20T18:34:55.201Z,100875.34
2018-12-20T18:37:24.232Z,100877.13
2018-12-20T18:39:53.295Z,100877.58
2018-12-20T18:42:22.650Z,100878.88
2018-12-20T18:44:51.699Z,100875.84
2018-12-20T18:47:21.103Z,100872.80
2018-12-20T18:49:50.141Z,100871.48
2018-12-20T18:52:19.265Z,100874.11
2018-12-20T18:55:06.566Z,100874.98
2018-12-20T18:57:35.723Z,100865.81
2018-12-20T19:00:06.718Z,100867.16
2018-12-20T19:02:35.855Z,100864.52
2018-12-20T19:05:06.088Z,100862.77
2018-12-20T19:07:35.229Z,100864.97
2018-12-20T19:10:04.853Z,100864.52
2018-12-20T19:12:33.869Z,100864.95
2018-12-20T19:15:03.484Z,100854.50
2018-12-20T19:17:33.039Z,100850.55
2018-12-20T19:20:02.196Z,100854.48
2018-12-20T19:22:31.319Z,100850.56
2018-12-20T19:25:00.626Z,100847.94
2018-12-20T19:27:29.853Z,100842.27
2018-12-20T19:29:58.929Z,100847.07
2018-12-20T19:32:28.081Z,100852.72
2018-12-20T19:34:57.097Z,100848.39
2018-12-20T19:37:26.172Z,100852.31
2018-12-20T19:40:01.640Z,100844.87
2018-12-20T19:42:30.765Z,100843.13
2018-12-20T19:44:59.809Z,100847.52
2018-12-20T19:47:28.938Z,100844.45
2018-12-20T19:50:04.746Z,100843.57
2018-12-20T19:52:30.800Z,100846.20
2018-12-20T19:54:59.864Z,100844.87
2018-12-20T19:57:29.046Z,100845.74
2018-12-20T19:59:58.526Z,100844.02
2018-12-20T20:02:27.657Z,100840.96
2018-12-20T20:04:56.829Z,100844.45
2018-12-20T20:07:25.901Z,100837.02
2018-12-20T20:09:55.063Z,100836.58
2018-12-20T20:12:26.952Z,100835.72
2018-12-20T20:14:56.096Z,100830.03
2018-12-20T20:17:25.356Z,100826.11
2018-12-20T20:19:59.690Z,100826.95
2018-12-20T20:22:25.742Z,100828.70
2018-12-20T20:24:55.032Z,100820.41
2018-12-20T20:27:24.161Z,100825.21
2018-12-20T20:29:53.401Z,100822.17
2018-12-20T20:32:24.038Z,100817.35
2018-12-20T20:34:53.136Z,100820.87
2018-12-20T20:37:22.304Z,100814.29
2018-12-20T20:39:51.470Z,100806.01
2018-12-20T20:42:20.585Z,100808.20
2018-12-20T20:44:49.676Z,100809.06
2018-12-20T20:47:18.831Z,100813.43
2018-12-20T20:49:47.988Z,100814.72
2018-12-20T20:52:17.127Z,100807.73
2018-12-20T20:54:46.288Z,100809.48
2018-12-20T20:57:15.446Z,100816.48
2018-12-20T20:59:51.321Z,100815.19
2018-12-20T21:02:21.801Z,100810.37
2018-12-20T21:04:51.059Z,100813.84
2018-12-20T21:07:20.206Z,100809.93
2018-12-20T21:09:49.286Z,100805.56
2018-12-20T21:12:22.851Z,100812.09
2018-12-20T21:14:52.555Z,100806.85
2018-12-20T21:17:20.593Z,100806.43
2018-12-20T21:19:50.393Z,100801.19
2018-12-20T21:22:19.574Z,100800.74
2018-12-20T21:24:48.616Z,100802.52
2018-12-20T21:27:17.666Z,100799.00
2018-12-20T21:29:46.700Z,100798.13
2018-12-20T21:32:15.812Z,100798.13
2018-12-20T21:34:44.923Z,100797.27
2018-12-20T21:37:13.933Z,100795.50
2018-12-20T21:39:43.031Z,100792.45
2018-12-20T21:42:12.118Z,100791.57
2018-12-20T21:44:41.160Z,100790.27
2018-12-20T21:47:10.185Z,100793.34
2018-12-20T21:49:40.200Z,100795.96
2018-12-20T21:52:10.569Z,100791.56
2018-12-20T21:54:39.794Z,100792.01
2018-12-20T21:57:08.937Z,100789.83
2018-12-20T21:59:38.036Z,100788.97
2018-12-20T22:02:07.133Z,100786.76
2018-12-20T22:04:36.154Z,100786.31
2018-12-20T22:07:05.172Z,100789.81
2018-12-20T22:09:34.203Z,100790.25
2018-12-20T22:12:03.289Z,100785.89
2018-12-20T22:14:32.364Z,100793.33
2018-12-20T22:17:01.494Z,100789.37
2018-12-20T22:19:30.598Z,100797.25
2018-12-20T22:21:59.806Z,100788.94
2018-12-20T22:24:30.002Z,100788.08
2018-12-20T22:26:59.125Z,100785.44
2018-12-20T22:29:28.236Z,100789.79
2018-12-20T22:31:57.283Z,100786.32
2018-12-20T22:34:27.336Z,100780.63
2018-12-20T22:36:56.422Z,100780.61
2018-12-20T22:39:26.182Z,100775.37
2018-12-20T22:41:55.190Z,100773.19
2018-12-20T22:44:24.338Z,100772.32
2018-12-20T22:46:53.469Z,100775.38
2018-12-20T22:49:22.493Z,100771.43
2018-12-20T22:51:51.555Z,100768.83
2018-12-20T22:54:21.177Z,100772.31
2018-12-20T22:56:50.363Z,100766.19
2018-12-20T22:59:19.542Z,100772.30
2018-12-20T23:01:48.681Z,100765.30
2018-12-20T23:04:17.736Z,100763.55
2018-12-20T23:06:48.372Z,100763.12
2018-12-20T23:09:17.383Z,100758.31
2018-12-20T23:11:46.393Z,100760.50
2018-12-20T23:14:15.419Z,100757.45
2018-12-20T23:16:44.439Z,100750.45
2018-12-20T23:19:13.487Z,100746.95
2018-12-20T23:21:42.484Z,100746.52
2018-12-20T23:24:11.480Z,100754.39
2018-12-20T23:26:40.473Z,100747.40
2018-12-20T23:29:09.501Z,100739.06
2018-12-20T23:31:38.585Z,100737.75
2018-12-20T23:34:07.629Z,100736.88
2018-12-20T23:36:36.808Z,100736.00
2018-12-20T23:39:07.039Z,100736.45
2018-12-20T23:41:36.049Z,100731.64
2018-12-20T23:44:05.127Z,100729.91
2018-12-20T23:46:34.125Z,100729.45
2018-12-20T23:49:03.169Z,100722.91
2018-12-20T23:51:32.178Z,100723.78
2018-12-20T23:54:01.193Z,100717.66
2018-12-20T23:56:30.196Z,100715.48
2018-12-20T23:58:59.312Z,100716.32
